createdAt,value
2023-01-05T00:02:24.968Z,7.37
2023-01-05T00:07:28.529Z,7.42
2023-01-05T00:12:50.486Z,7.47
2023-01-05T00:18:12.199Z,7.54
2023-01-05T00:23:15.197Z,7.58
2023-01-05T00:28:18.037Z,7.62
2023-01-05T00:33:20.988Z,7.66
2023-01-05T00:38:23.864Z,7.70
2023-01-05T00:43:27.652Z,7.73
2023-01-05T00:48:30.253Z,7.73
2023-01-05T00:53:33.289Z,7.75
2023-01-05T00:58:36.671Z,7.75
2023-01-05T01:03:40.404Z,7.76
2023-01-05T01:08:43.268Z,7.78
2023-01-05T01:13:48.368Z,7.79
2023-01-05T01:18:53.616Z,7.80
2023-01-05T01:23:57.992Z,7.77
2023-01-05T01:29:01.594Z,7.73
2023-01-05T01:34:06.493Z,7.70
2023-01-05T01:39:10.472Z,7.69
2023-01-05T01:44:48.479Z,7.72
2023-01-05T01:49:54.873Z,7.79
2023-01-05T01:54:57.659Z,7.84
2023-01-05T02:00:06.090Z,7.85
2023-01-05T02:05:12.647Z,7.83
2023-01-05T02:10:22.049Z,7.87
2023-01-05T02:15:55.779Z,7.91
2023-01-05T02:21:10.371Z,7.93
2023-01-05T02:26:37.369Z,8.00
2023-01-05T02:31:45.098Z,8.07
2023-01-05T02:37:00.355Z,8.13
2023-01-05T02:42:13.152Z,8.16
2023-01-05T02:47:30.149Z,8.18
2023-01-05T02:52:42.667Z,8.15
2023-01-05T02:57:51.802Z,8.14
2023-01-05T03:03:02.514Z,8.08
2023-01-05T03:08:08.777Z,8.05
2023-01-05T03:13:30.941Z,8.07
2023-01-05T03:18:56.346Z,8.05
2023-01-05T03:24:18.239Z,8.02
2023-01-05T03:29:39.510Z,7.99
2023-01-05T03:35:17.552Z,7.96
2023-01-05T03:40:25.301Z,7.91
2023-01-05T03:45:41.944Z,7.84
2023-01-05T03:50:47.009Z,7.82
2023-01-05T03:55:50.812Z,7.81
2023-01-05T04:00:53.729Z,7.75
2023-01-05T04:05:56.810Z,7.73
2023-01-05T04:11:11.917Z,7.68
2023-01-05T04:16:15.288Z,7.65
2023-01-05T04:21:19.278Z,7.68
2023-01-05T04:26:21.489Z,7.71
2023-01-05T04:31:24.725Z,7.75
2023-01-05T04:36:27.482Z,7.81
2023-01-05T04:41:31.249Z,7.81
2023-01-05T04:46:35.986Z,7.84
2023-01-05T04:51:38.822Z,7.84
2023-01-05T04:56:41.175Z,7.85
2023-01-05T05:01:43.067Z,7.88
2023-01-05T05:06:46.292Z,7.85
2023-01-05T05:11:49.494Z,7.88
2023-01-05T05:16:52.593Z,7.90
2023-01-05T05:21:55.749Z,7.87
2023-01-05T05:26:58.636Z,7.87
2023-01-05T05:32:01.552Z,7.88
2023-01-05T05:37:03.915Z,7.88
2023-01-05T05:42:06.865Z,7.92
2023-01-05T05:47:09.209Z,7.95
2023-01-05T05:52:11.870Z,7.95
2023-01-05T05:57:14.821Z,7.95
2023-01-05T06:02:17.792Z,7.90
2023-01-05T06:07:20.069Z,7.88
2023-01-05T06:12:21.971Z,7.91
2023-01-05T06:17:25.988Z,7.92
2023-01-05T06:22:30.322Z,8.00
2023-01-05T06:27:33.609Z,8.02
2023-01-05T06:32:37.326Z,8.06
2023-01-05T06:37:40.731Z,8.08
2023-01-05T06:42:42.883Z,8.05
2023-01-05T06:47:45.649Z,8.07
2023-01-05T06:52:49.294Z,8.02
2023-01-05T06:58:00.260Z,7.99
2023-01-05T07:03:04.483Z,7.98
2023-01-05T07:08:07.740Z,8.00
2023-01-05T07:13:10.312Z,8.04
2023-01-05T07:18:12.680Z,8.04
2023-01-05T07:23:15.297Z,8.05
2023-01-05T07:28:18.483Z,8.08
2023-01-05T07:33:21.684Z,8.13
2023-01-05T07:38:24.838Z,8.16
2023-01-05T07:43:27.791Z,8.24
2023-01-05T07:48:29.898Z,8.33
2023-01-05T07:53:43.258Z,8.35
2023-01-05T07:58:48.808Z,8.41
2023-01-05T08:03:52.243Z,8.50
2023-01-05T08:08:57.413Z,8.60
2023-01-05T08:14:02.903Z,8.65
2023-01-05T08:23:39.355Z,8.81
2023-01-05T08:28:42.763Z,8.84
2023-01-05T08:33:45.928Z,8.90
2023-01-05T08:38:52.919Z,8.95
2023-01-05T08:43:58.728Z,8.99
2023-01-05T08:49:07.000Z,9.00
2023-01-05T08:54:10.436Z,9.01
2023-01-05T08:59:16.335Z,9.06
2023-01-05T09:04:21.358Z,9.18
2023-01-05T09:09:25.736Z,9.26
2023-01-05T09:14:29.875Z,9.26
2023-01-05T09:19:35.306Z,9.23
2023-01-05T09:24:39.463Z,9.17
2023-01-05T09:29:42.421Z,9.07
2023-01-05T09:34:48.000Z,9.01
2023-01-05T09:39:53.669Z,9.03
2023-01-05T09:45:03.491Z,9.06
2023-01-05T09:50:10.680Z,9.15
2023-01-05T09:55:20.191Z,9.29
2023-01-05T10:00:25.839Z,9.38
2023-01-05T10:05:30.789Z,9.44
2023-01-05T10:11:08.908Z,9.43
2023-01-05T10:16:18.341Z,9.30
2023-01-05T10:21:55.893Z,9.24
2023-01-05T10:27:25.833Z,9.24
2023-01-05T10:33:21.934Z,9.26
2023-01-05T10:38:40.387Z,9.32
2023-01-05T10:43:54.891Z,9.34
2023-01-05T10:49:00.122Z,9.37
2023-01-05T10:54:05.899Z,9.44
2023-01-05T10:59:11.519Z,9.69
2023-01-05T11:04:34.394Z,10.01
2023-01-05T11:09:45.629Z,10.19
2023-01-05T11:14:58.347Z,10.35
2023-01-05T11:20:05.374Z,10.51
2023-01-05T11:25:25.315Z,10.53
2023-01-05T11:30:29.822Z,10.39
2023-01-05T11:35:39.222Z,10.42
2023-01-05T11:40:44.257Z,10.52
2023-01-05T11:45:52.403Z,10.45
2023-01-05T11:50:59.938Z,10.13
2023-01-05T11:56:25.321Z,9.92
2023-01-05T12:01:55.194Z,9.75
2023-01-05T12:07:08.221Z,9.67
2023-01-05T12:12:36.673Z,9.68
2023-01-05T12:18:04.173Z,9.59
2023-01-05T12:23:41.711Z,9.47
2023-01-05T12:35:04.773Z,9.32
2023-01-05T12:40:24.318Z,9.17
2023-01-05T12:45:40.004Z,9.09
2023-01-05T12:51:05.593Z,8.97
2023-01-05T12:56:22.998Z,8.86
2023-01-05T13:01:30.185Z,8.73
2023-01-05T13:06:39.681Z,8.61
2023-01-05T13:12:06.859Z,8.51
2023-01-05T13:17:23.923Z,8.41
2023-01-05T13:22:31.426Z,8.38
2023-01-05T13:27:34.802Z,8.37
2023-01-05T13:33:06.065Z,8.29
2023-01-05T13:38:46.747Z,8.25
2023-01-05T13:44:03.495Z,8.13
2023-01-05T13:49:16.338Z,8.06
2023-01-05T13:54:59.944Z,7.95
2023-01-05T14:00:21.557Z,7.82
2023-01-05T14:05:34.103Z,7.75
2023-01-05T14:10:38.099Z,7.72
2023-01-05T14:15:44.385Z,7.66
2023-01-05T14:20:53.007Z,7.61
2023-01-05T14:25:59.747Z,7.64
2023-01-05T14:31:15.865Z,7.60
2023-01-05T14:36:43.425Z,7.52
2023-01-05T14:42:01.860Z,7.50
2023-01-05T14:47:06.652Z,7.45
2023-01-05T14:52:39.292Z,7.43
2023-01-05T14:57:54.262Z,7.39
2023-01-05T15:09:01.825Z,7.20
2023-01-05T15:14:32.222Z,7.16
2023-01-05T15:19:54.371Z,7.09
2023-01-05T15:25:27.366Z,7.05
2023-01-05T15:30:43.242Z,7.01
2023-01-05T15:35:53.755Z,6.99
2023-01-05T15:41:12.143Z,7.04
2023-01-05T15:46:21.334Z,7.00
2023-01-05T15:51:28.800Z,6.97
2023-01-05T15:56:35.365Z,6.96
2023-01-05T16:01:39.045Z,6.93
2023-01-05T16:06:47.001Z,6.86
2023-01-05T16:11:53.622Z,6.71
2023-01-05T16:17:08.281Z,6.58
2023-01-05T16:22:27.268Z,6.49
2023-01-05T16:27:39.542Z,6.39
2023-01-05T16:32:42.694Z,6.27
2023-01-05T16:37:46.321Z,6.08
2023-01-05T16:42:50.496Z,5.88
2023-01-05T16:47:54.087Z,5.74
2023-01-05T16:53:05.341Z,5.64
2023-01-05T16:58:29.395Z,5.57
2023-01-05T17:03:32.663Z,5.44
2023-01-05T17:08:38.472Z,5.24
2023-01-05T17:14:01.957Z,5.14
2023-01-05T17:19:20.457Z,5.05
2023-01-05T17:24:23.685Z,4.94
2023-01-05T17:29:30.872Z,4.83
2023-01-05T17:34:35.843Z,4.77
2023-01-05T17:39:40.098Z,4.75
2023-01-05T17:44:42.935Z,4.73
2023-01-05T17:49:45.879Z,4.71
2023-01-05T17:54:48.328Z,4.73
2023-01-05T17:59:51.017Z,4.74
2023-01-05T18:04:56.592Z,4.69
2023-01-05T18:10:00.093Z,4.68
2023-01-05T18:15:08.040Z,4.68
2023-01-05T18:20:14.848Z,4.71
2023-01-05T18:25:20.134Z,4.75
2023-01-05T18:30:22.952Z,4.72
2023-01-05T18:35:27.203Z,4.67
2023-01-05T18:40:33.150Z,4.65
2023-01-05T18:45:39.421Z,4.63
2023-01-05T18:50:51.491Z,4.61
2023-01-05T18:55:55.202Z,4.60
2023-01-05T19:01:02.878Z,4.53
2023-01-05T19:06:16.221Z,4.52
2023-01-05T19:11:27.832Z,4.53
2023-01-05T19:16:35.603Z,4.51
2023-01-05T19:21:41.655Z,4.48
2023-01-05T19:26:46.386Z,4.51
2023-01-05T19:31:49.288Z,4.47
2023-01-05T19:36:52.401Z,4.43
2023-01-05T19:41:55.238Z,4.43
2023-01-05T19:46:57.912Z,4.44
2023-01-05T19:52:00.736Z,4.37
2023-01-05T19:57:03.288Z,4.34
2023-01-05T20:02:06.534Z,4.31
2023-01-05T20:07:11.544Z,4.30
2023-01-05T20:12:15.655Z,4.35
2023-01-05T20:17:19.773Z,4.35
2023-01-05T20:22:23.965Z,4.32
2023-01-05T20:27:27.561Z,4.33
2023-01-05T20:32:36.407Z,4.33
2023-01-05T20:37:41.527Z,4.26
2023-01-05T20:42:44.962Z,4.20
2023-01-05T20:47:48.715Z,4.21
2023-01-05T20:52:51.273Z,4.20
2023-01-05T20:57:54.119Z,4.19
2023-01-05T21:02:58.407Z,4.17
2023-01-05T21:08:04.377Z,4.16
2023-01-05T21:13:30.519Z,4.09
2023-01-05T21:18:34.550Z,4.06
2023-01-05T21:23:39.513Z,4.12
2023-01-05T21:28:44.800Z,4.13
2023-01-05T21:33:51.005Z,4.06
2023-01-05T21:39:06.021Z,4.08
2023-01-05T21:44:14.681Z,4.08
2023-01-05T21:49:24.195Z,4.07
2023-01-05T21:54:51.432Z,4.13
2023-01-05T21:59:54.954Z,4.14
2023-01-05T22:04:58.604Z,4.13
2023-01-05T22:10:04.338Z,4.13
2023-01-05T22:15:13.934Z,4.15
2023-01-05T22:20:23.357Z,4.14
2023-01-05T22:25:31.743Z,4.13
2023-01-05T22:30:36.667Z,4.16
2023-01-05T22:35:43.504Z,4.15
2023-01-05T22:40:57.174Z,4.09
2023-01-05T22:46:06.431Z,4.09
2023-01-05T22:51:18.366Z,4.03
2023-01-05T22:56:29.971Z,3.96
2023-01-05T23:01:38.938Z,3.95
2023-01-05T23:06:44.939Z,3.93
2023-01-05T23:11:49.004Z,3.89
2023-01-05T23:16:53.266Z,3.90
2023-01-05T23:21:57.416Z,3.89
2023-01-05T23:27:00.418Z,3.87
2023-01-05T23:32:04.480Z,3.85
2023-01-05T23:37:06.726Z,3.86
2023-01-05T23:42:30.529Z,3.81
2023-01-05T23:47:33.851Z,3.79
2023-01-05T23:52:37.767Z,3.79
2023-01-05T23:57:40.798Z,3.76
